Terminal Aerodrome Forecast
Issued by NWS

Current Version | Previous Version | Text Only | Print | Product List | Glossary Off
Versions: 1 2 3 4 5 6 7 8 9 10 11 12 13 14 15 16 17 18 19 20 21 22 23 24 25 26 27 28 29 30 31 32 33 34 35 36 37 38 39 40 41 42

000
FTUS41 KRNK 041127
TAFLWB
TAF
KLWB 041127Z 0412/0512 00000KT P6SM SCT007 BKN060
      TEMPO 0412/0413 4SM BR BKN007
     FM041300 27005KT P6SM VCSH OVC020
     FM041600 28007KT P6SM VCSH BKN040
     FM042300 27005KT P6SM BKN045
     FM050300 26004KT 4SM -SHRA BR OVC015
     FM050800 30004KT 2SM -SHRA OVC020=

USA.gov is the U.S. government's official web portal to all federal, state and local government web resources and services.